Time;durP1;ratioP1;P1;durP2;ratioP2;P2;SDS_P1;SDS_P2;PMS_P1;PMS_P2;Temp;Humidity;BMP_temperature;BMP_pressure;BME280_temperature;BME280_humidity;BME280_pressure;Samples;Min_cycle;Max_cycle;Signal;HPM_P1;HPM_P2
2023/05/29 00:00:21;;;;;;;13.07;5.83;;;;;;;16.96;68.97;102151.75;5170813;28;20034;-80
2023/05/29 00:03:04;;;;;;;10.93;5.40;;;;;;;16.85;69.67;102147.16;5195015;28;20387;-80
2023/05/29 00:05:36;;;;;;;8.57;5.70;;;;;;;16.63;70.24;102164.44;5170803;28;20114;-80
2023/05/29 00:08:17;;;;;;;13.80;6.00;;;;;;;16.70;69.29;102143.75;5152150;28;20474;-79
2023/05/29 00:10:54;;;;;;;11.00;5.33;;;;;;;16.32;69.54;102129.38;5152862;28;20611;-80
2023/05/29 00:13:25;;;;;;;15.40;5.77;;;;;;;16.36;69.21;102136.19;5152487;28;20027;-80
2023/05/29 00:16:04;;;;;;;15.97;4.97;;;;;;;16.60;68.68;102154.03;5152990;28;20030;-80
2023/05/29 00:18:36;;;;;;;11.77;4.93;;;;;;;16.33;67.97;102141.69;5152850;28;20072;-80
2023/05/29 00:21:09;;;;;;;16.20;4.60;;;;;;;16.05;69.47;102151.34;5153139;28;20026;-80
2023/05/29 00:23:49;;;;;;;12.40;4.83;;;;;;;16.15;67.19;102141.03;5168897;28;20033;-80
2023/05/29 00:26:21;;;;;;;18.87;5.60;;;;;;;16.13;67.15;102157.00;5169916;28;20031;-80
2023/05/29 00:28:53;;;;;;;19.53;6.40;;;;;;;16.07;67.62;102167.97;5168784;28;20030;-80
2023/05/29 00:31:24;;;;;;;13.97;4.97;;;;;;;16.09;67.17;102160.78;5168973;28;20115;-80
2023/05/29 00:33:58;;;;;;;16.13;5.70;;;;;;;15.85;67.11;102127.84;5169987;28;20027;-80
2023/05/29 00:36:31;;;;;;;18.33;5.00;;;;;;;15.96;67.80;102176.50;5170086;28;20027;-80
2023/05/29 00:39:02;;;;;;;14.93;4.63;;;;;;;15.64;67.87;102130.00;5168945;28;20478;-80
2023/05/29 00:41:34;;;;;;;13.73;4.77;;;;;;;15.28;69.21;102124.22;5168772;28;20018;-80
2023/05/29 00:44:08;;;;;;;13.33;4.57;;;;;;;15.64;68.52;102174.88;5169828;28;20455;-80
2023/05/29 00:46:40;;;;;;;15.80;5.23;;;;;;;15.47;69.55;102170.63;5169797;28;20042;-80
2023/05/29 00:49:12;;;;;;;20.73;5.33;;;;;;;15.33;67.98;102151.19;5169934;28;20468;-80
2023/05/29 00:51:51;;;;;;;13.77;5.20;;;;;;;15.48;66.48;102146.75;5168948;28;20027;-80
2023/05/29 00:54:31;;;;;;;13.57;4.47;;;;;;;15.31;66.67;102154.84;5184594;28;20029;-80
2023/05/29 00:57:06;;;;;;;15.00;3.93;;;;;;;15.45;65.73;102186.56;5169297;28;20031;-80
2023/05/29 00:59:41;;;;;;;16.63;4.10;;;;;;;15.42;64.50;102152.44;5184576;28;20085;-80
2023/05/29 01:02:16;;;;;;;14.60;3.83;;;;;;;15.39;64.70;102157.03;5184641;28;20019;-80
2023/05/29 01:04:48;;;;;;;13.50;4.47;;;;;;;15.42;63.15;102151.56;5168724;28;20032;-80
2023/05/29 01:07:21;;;;;;;16.00;4.77;;;;;;;15.15;63.58;102133.81;5168987;28;20084;-80
2023/05/29 01:10:05;;;;;;;18.43;5.07;;;;;;;15.42;64.40;102191.16;5168391;28;20166;-80
2023/05/29 01:13:06;;;;;;;17.73;4.97;;;;;;;15.55;62.43;102184.22;5167616;28;20038;-80
2023/05/29 01:16:04;;;;;;;13.90;4.00;;;;;;;15.40;62.82;102174.56;5150674;28;20055;-79
2023/05/29 01:19:08;;;;;;;14.47;4.00;;;;;;;15.46;63.47;102214.66;5159386;28;20035;-79
2023/05/29 01:21:54;;;;;;;12.10;4.63;;;;;;;15.35;63.73;102223.22;5149289;28;20413;-80
2023/05/29 01:24:34;;;;;;;13.67;4.60;;;;;;;15.30;64.26;102221.78;5159433;28;20026;-80
2023/05/29 01:27:10;;;;;;;14.10;4.87;;;;;;;15.20;64.95;102232.03;5190569;28;20143;-80
2023/05/29 01:29:45;;;;;;;17.33;5.07;;;;;;;14.70;64.29;102145.94;5171245;28;20038;-80
2023/05/29 01:32:18;;;;;;;20.67;5.77;;;;;;;14.54;65.63;102160.94;5170461;28;20031;-79
2023/05/29 01:34:49;;;;;;;18.33;4.97;;;;;;;14.80;65.06;102198.19;5171716;28;20046;-81
2023/05/29 01:37:23;;;;;;;17.40;5.00;;;;;;;14.36;66.80;102174.19;5172969;28;20462;-80
2023/05/29 01:40:09;;;;;;;14.25;4.03;;;;;;;14.44;66.65;102197.47;5170252;28;20023;-80
2023/05/29 01:42:42;;;;;;;15.00;5.00;;;;;;;14.44;66.29;102177.25;5156919;28;20767;-81
2023/05/29 01:45:14;;;;;;;15.00;5.70;;;;;;;14.60;65.50;102179.03;5156881;28;20115;-80
2023/05/29 01:47:46;;;;;;;16.77;5.30;;;;;;;14.42;66.47;102189.66;5172903;28;20068;-79
2023/05/29 01:50:19;;;;;;;16.30;4.70;;;;;;;14.69;65.75;102206.69;5172561;28;20041;-79
2023/05/29 01:52:50;;;;;;;16.50;4.70;;;;;;;14.63;66.70;102236.88;5171325;28;20041;-79
2023/05/29 01:55:22;;;;;;;14.27;4.60;;;;;;;14.19;67.41;102198.84;5171899;28;20027;-79
2023/05/29 01:57:54;;;;;;;14.90;4.13;;;;;;;14.35;67.14;102193.56;5154803;28;20034;-79
2023/05/29 02:00:26;;;;;;;18.60;4.80;;;;;;;14.11;66.91;102173.75;5155239;28;20393;-79
2023/05/29 02:02:57;;;;;;;17.10;5.03;;;;;;;14.17;68.37;102205.97;5154333;28;20023;-79
2023/05/29 02:05:29;;;;;;;15.70;4.63;;;;;;;14.37;68.17;102225.97;5171532;28;20356;-80
2023/05/29 02:08:00;;;;;;;15.97;4.30;;;;;;;14.07;68.22;102190.63;5171347;28;20073;-79
2023/05/29 02:10:32;;;;;;;17.07;4.20;;;;;;;14.27;67.67;102207.16;5165204;28;20374;-79
2023/05/29 02:13:03;;;;;;;16.10;4.47;;;;;;;14.18;68.00;102199.75;5187878;28;20047;-79
2023/05/29 02:15:35;;;;;;;13.37;4.23;;;;;;;14.11;68.15;102196.59;5174766;28;20389;-79
2023/05/29 02:18:11;;;;;;;14.50;4.00;;;;;;;14.17;67.88;102190.16;5170076;28;20015;-79
2023/05/29 02:20:43;;;;;;;18.37;5.17;;;;;;;13.96;67.91;102175.44;5171769;28;20048;-79
2023/05/29 02:23:15;;;;;;;12.67;3.80;;;;;;;14.08;67.66;102194.13;5171137;28;20096;-79
2023/05/29 02:25:46;;;;;;;16.43;4.83;;;;;;;13.90;68.32;102194.16;5171015;28;20113;-79
2023/05/29 02:28:18;;;;;;;13.33;3.60;;;;;;;13.82;69.54;102207.75;5172452;28;20133;-80
2023/05/29 02:30:50;;;;;;;17.20;4.80;;;;;;;14.01;68.35;102223.44;5170414;28;20534;-80
2023/05/29 02:33:21;;;;;;;12.23;4.17;;;;;;;13.82;68.64;102188.47;5170393;28;20042;-80
2023/05/29 02:35:53;;;;;;;18.30;5.10;;;;;;;14.08;66.87;102197.63;5170707;28;20037;-79
2023/05/29 02:38:24;;;;;;;18.63;5.10;;;;;;;13.98;67.81;102228.03;5187569;28;20512;-80
2023/05/29 02:40:55;;;;;;;14.93;4.83;;;;;;;13.94;68.36;102227.31;5174815;28;20022;-80
2023/05/29 02:43:27;;;;;;;17.73;4.87;;;;;;;13.86;68.03;102197.91;5192284;28;20026;-80
2023/05/29 02:45:58;;;;;;;16.00;4.70;;;;;;;13.83;68.96;102225.25;5191188;28;20027;-82
2023/05/29 02:48:30;;;;;;;13.37;4.13;;;;;;;13.64;68.76;102199.00;5191664;28;20786;-80
2023/05/29 02:51:01;;;;;;;16.07;4.20;;;;;;;13.91;68.19;102222.22;5191605;28;20106;-80
2023/05/29 02:53:33;;;;;;;15.50;3.73;;;;;;;13.73;68.72;102206.44;5173066;28;20045;-80
2023/05/29 02:56:16;;;;;;;15.13;4.50;;;;;;;13.79;68.85;102229.81;5192764;28;20024;-81
2023/05/29 02:59:03;;;;;;;16.30;4.30;;;;;;;13.91;68.56;102251.19;5172314;28;20463;-81
2023/05/29 03:01:34;;;;;;;14.13;3.93;;;;;;;13.60;68.19;102198.31;5187279;28;20018;-81
2023/05/29 03:04:17;;;;;;;19.47;4.50;;;;;;;13.99;68.01;102256.91;5172107;28;20034;-81
2023/05/29 03:06:48;;;;;;;17.63;3.93;;;;;;;13.33;70.31;102209.28;5170763;28;20051;-81
2023/05/29 03:09:23;;;;;;;17.73;4.00;;;;;;;13.57;69.76;102231.84;5171962;28;20039;-81
2023/05/29 03:11:57;;;;;;;;;;;;;;;14.38;63.96;102257.50;5173567;28;20039;-83
2023/05/29 03:14:36;;;;;;;12.80;4.03;;;;;;;13.60;69.03;102218.50;5173217;28;20653;-82
2023/05/29 03:17:08;;;;;;;14.67;3.90;;;;;;;13.23;70.47;102214.13;5172292;28;20035;-83
2023/05/29 03:19:39;;;;;;;17.17;4.60;;;;;;;13.01;72.42;102203.81;5171816;28;20735;-82
2023/05/29 03:22:20;;;;;;;19.10;4.20;;;;;;;13.36;71.22;102253.00;5171260;28;20018;-82
2023/05/29 03:24:51;;;;;;;17.10;4.03;;;;;;;13.25;72.19;102241.22;5171870;28;20023;-82
2023/05/29 03:27:25;;;;;;;18.53;4.97;;;;;;;13.10;72.08;102210.41;5172868;28;20026;-81
2023/05/29 03:30:23;;;;;;;16.80;3.92;;;;;;;13.23;70.67;102211.50;5171609;28;20497;-82
2023/05/29 03:32:54;;;;;;;20.70;5.30;;;;;;;12.71;73.51;102215.72;5171574;28;20031;-82
2023/05/29 03:35:29;;;;;;;18.33;4.07;;;;;;;12.73;74.26;102213.88;5171679;28;20031;-82
2023/05/29 03:38:05;;;;;;;;;;;;;;;13.69;68.17;102257.53;5171839;28;20031;-82
2023/05/29 03:40:36;;;;;;;16.23;3.90;;;;;;;12.94;73.66;102237.44;5171775;28;20358;-82
2023/05/29 03:43:08;;;;;;;17.37;4.00;;;;;;;12.88;73.28;102211.47;5171799;28;20037;-82
2023/05/29 03:45:40;;;;;;;15.00;4.10;;;;;;;12.93;72.81;102212.09;5171182;28;20027;-82
2023/05/29 03:48:15;;;;;;;21.27;5.97;;;;;;;12.98;74.82;102244.28;5173107;28;20022;-82
2023/05/29 03:50:56;;;;;;;21.83;5.27;;;;;;;13.11;73.50;102243.69;5187933;28;20038;-81
2023/05/29 03:53:32;;;;;;;21.67;3.97;;;;;;;13.10;74.44;102255.13;5178334;28;20077;-82
2023/05/29 03:56:26;;;;;;;18.43;4.77;;;;;;;13.06;75.30;102257.91;5154799;28;20035;-82
2023/05/29 03:58:58;;;;;;;17.33;4.30;;;;;;;12.80;75.44;102238.97;5155070;28;20078;-82
2023/05/29 04:01:29;;;;;;;19.13;4.27;;;;;;;13.00;75.19;102263.47;5145623;28;20066;-81
2023/05/29 04:04:04;;;;;;;24.07;5.60;;;;;;;12.74;77.86;102277.81;5198625;28;20090;-81
2023/05/29 04:06:38;;;;;;;16.70;4.78;;;;;;;12.74;76.25;102233.97;5211118;28;20049;-82
2023/05/29 04:09:10;;;;;;;18.50;4.78;;;;;;;12.64;76.36;102225.66;5155300;28;20087;-81
2023/05/29 04:11:44;;;;;;;24.63;5.30;;;;;;;12.72;76.37;102238.47;5150064;28;20754;-81
2023/05/29 04:14:18;;;;;;;20.00;5.22;;;;;;;12.97;76.07;102258.31;5151113;28;20023;-81
2023/05/29 04:16:50;;;;;;;;;;;;;;;13.68;70.51;102295.34;5150154;28;20089;-79
2023/05/29 04:19:21;;;;;;;19.13;4.63;;;;;;;13.03;74.99;102267.72;5148282;28;20352;-78
2023/05/29 04:21:53;;;;;;;20.60;5.33;;;;;;;12.75;77.01;102255.84;5147687;28;20402;-78
2023/05/29 04:24:24;;;;;;;18.27;4.90;;;;;;;12.83;76.36;102262.47;5149169;28;20046;-78
2023/05/29 04:26:55;;;;;;;20.30;4.50;;;;;;;12.63;78.59;102271.28;5149585;28;20023;-79
2023/05/29 04:29:29;;;;;;;19.57;4.70;;;;;;;12.51;78.93;102251.69;5149295;28;20027;-79
2023/05/29 04:32:03;;;;;;;17.43;4.43;;;;;;;12.80;77.56;102278.38;5150248;28;20465;-79
2023/05/29 04:34:34;;;;;;;18.88;5.03;;;;;;;12.67;79.58;102293.03;5148610;28;20418;-79
2023/05/29 04:37:09;;;;;;;14.20;3.83;;;;;;;12.71;78.16;102276.19;5147240;28;20031;-78
2023/05/29 04:39:40;;;;;;;19.88;4.60;;;;;;;12.62;78.98;102266.09;5149312;28;20376;-79
2023/05/29 04:42:12;;;;;;;20.20;5.47;;;;;;;12.45;79.12;102249.31;5148249;28;20038;-79
2023/05/29 04:44:43;;;;;;;20.20;4.97;;;;;;;12.47;78.60;102247.47;5149958;28;20023;-79
2023/05/29 04:47:15;;;;;;;16.87;4.57;;;;;;;12.45;80.37;102242.28;5150177;28;20046;-81
2023/05/29 04:49:48;;;;;;;19.07;4.73;;;;;;;12.27;81.05;102259.72;5243934;28;20017;-78
2023/05/29 04:52:21;;;;;;;19.37;4.70;;;;;;;12.52;80.59;102284.03;5251946;28;20025;-79
2023/05/29 04:54:53;;;;;;;17.17;5.73;;;;;;;12.42;79.44;102252.94;5197386;28;20105;-79
2023/05/29 04:57:25;;;;;;;21.47;5.27;;;;;;;12.82;77.91;102291.47;5149320;28;20027;-79
2023/05/29 04:59:57;;;;;;;18.00;4.60;;;;;;;12.64;80.20;102288.75;5149110;28;20073;-79
2023/05/29 05:02:28;;;;;;;20.80;5.90;;;;;;;12.51;79.23;102259.56;5149467;28;20404;-78
2023/05/29 05:04:59;;;;;;;17.83;4.60;;;;;;;12.52;78.69;102266.50;5148789;28;20027;-78
2023/05/29 05:07:31;;;;;;;18.17;4.53;;;;;;;12.80;78.40;102278.38;5142039;28;20085;-79
2023/05/29 05:10:03;;;;;;;17.70;4.87;;;;;;;12.47;79.35;102252.72;5150256;28;20043;-78
2023/05/29 05:12:35;;;;;;;15.90;4.67;;;;;;;12.69;78.34;102275.38;5152281;28;20028;-79
2023/05/29 05:15:07;;;;;;;19.47;4.10;;;;;;;12.98;78.78;102312.66;5152903;28;20100;-79
2023/05/29 05:17:38;;;;;;;17.33;4.67;;;;;;;12.42;78.59;102246.84;5152131;28;20479;-79
2023/05/29 05:20:11;;;;;;;19.10;4.77;;;;;;;12.55;77.23;102258.47;5151211;28;20031;-79
2023/05/29 05:22:42;;;;;;;18.60;4.63;;;;;;;12.64;78.28;102294.00;5149658;28;20077;-79
2023/05/29 05:25:14;;;;;;;14.37;4.67;;;;;;;12.87;77.22;102288.59;5152689;28;20471;-79
2023/05/29 05:27:50;;;;;;;16.73;4.87;;;;;;;12.93;77.02;102280.47;5150650;28;20039;-78
2023/05/29 05:30:22;;;;;;;16.87;4.43;;;;;;;12.71;77.82;102291.94;5167373;28;20046;-79
2023/05/29 05:32:56;;;;;;;17.67;4.90;;;;;;;12.91;77.72;102290.19;5150710;28;20024;-79
2023/05/29 05:35:30;;;;;;;15.40;4.45;;;;;;;13.25;74.94;102303.50;5151069;28;20034;-79
2023/05/29 05:38:01;;;;;;;15.50;3.85;;;;;;;12.98;75.94;102293.38;5150168;28;20038;-79
2023/05/29 05:40:33;;;;;;;19.33;5.03;;;;;;;13.15;74.82;102309.22;5151696;28;20514;-79
2023/05/29 05:43:05;;;;;;;20.53;4.80;;;;;;;12.99;74.74;102303.81;5146845;28;20029;-79
2023/05/29 05:45:41;;;;;;;29.37;5.10;;;;;;;13.23;74.12;102322.00;5143806;29;20038;-79
2023/05/29 05:48:13;;;;;;;27.27;5.63;;;;;;;13.20;74.41;102301.09;5152117;28;20038;-79
2023/05/29 05:50:45;;;;;;;24.30;5.20;;;;;;;13.03;74.53;102280.88;5151230;28;20023;-78
2023/05/29 05:53:16;;;;;;;16.43;4.53;;;;;;;13.14;73.57;102293.50;5150626;28;20027;-79
2023/05/29 05:55:48;;;;;;;22.80;5.10;;;;;;;13.12;73.66;102279.56;5156497;28;20065;-79
2023/05/29 05:58:20;;;;;;;21.57;5.17;;;;;;;13.52;72.74;102321.56;5152330;28;20031;-79
2023/05/29 06:00:52;;;;;;;25.83;6.07;;;;;;;13.29;73.43;102313.81;5149604;28;20260;-79
2023/05/29 06:03:24;;;;;;;24.63;6.33;;;;;;;13.21;73.14;102294.94;5151421;28;20038;-78
2023/05/29 06:05:55;;;;;;;21.73;5.27;;;;;;;13.30;73.37;102302.38;5166642;28;20105;-79
2023/05/29 06:08:27;;;;;;;21.00;5.50;;;;;;;13.29;72.69;102281.38;5151862;28;20481;-79
2023/05/29 06:10:58;;;;;;;16.00;5.07;;;;;;;13.37;71.55;102270.50;5165726;28;20043;-79
2023/05/29 06:13:30;;;;;;;23.43;6.03;;;;;;;13.37;72.06;102275.78;5137289;29;20074;-79
2023/05/29 06:16:01;;;;;;;18.17;4.47;;;;;;;13.45;71.38;102291.16;5150025;28;20517;-79
2023/05/29 06:18:33;;;;;;;19.83;5.13;;;;;;;13.82;70.22;102328.88;5151499;28;20455;-79
2023/05/29 06:21:07;;;;;;;22.43;4.00;;;;;;;13.54;70.74;102304.75;5150327;29;20022;-79
2023/05/29 06:23:38;;;;;;;18.05;4.05;;;;;;;13.73;69.93;102318.78;5150156;28;20038;-79
2023/05/29 06:26:11;;;;;;;18.70;3.90;;;;;;;13.68;69.02;102295.34;5150415;28;20035;-79
2023/05/29 06:28:42;;;;;;;18.47;4.37;;;;;;;13.65;69.04;102322.66;5141388;28;20349;-79
2023/05/29 06:31:14;;;;;;;20.50;5.33;;;;;;;13.91;68.23;102343.38;5129905;28;20031;-78
2023/05/29 06:33:45;;;;;;;16.83;4.23;;;;;;;13.94;67.38;102324.78;5129818;28;20038;-78
2023/05/29 06:36:17;;;;;;;17.97;4.10;;;;;;;14.14;67.38;102349.22;5147399;28;20019;-79
2023/05/29 06:38:49;;;;;;;14.70;4.20;;;;;;;14.17;65.38;102338.56;5149443;28;21009;-78
2023/05/29 06:41:21;;;;;;;18.83;5.10;;;;;;;14.05;65.11;102308.41;5150290;28;20030;-78
2023/05/29 06:43:53;;;;;;;17.40;4.60;;;;;;;14.09;65.15;102317.00;5165315;28;20027;-78
2023/05/29 06:46:24;;;;;;;16.87;3.90;;;;;;;14.38;65.34;102330.47;5151147;28;20076;-77
2023/05/29 06:48:56;;;;;;;19.27;4.67;;;;;;;14.70;62.90;102334.94;5165142;28;20039;-78
2023/05/29 06:51:27;;;;;;;18.03;4.63;;;;;;;14.66;64.58;102326.34;5142604;28;20028;-77
2023/05/29 06:53:58;;;;;;;16.07;4.17;;;;;;;14.77;61.72;102304.66;5150009;28;20039;-77
2023/05/29 06:56:30;;;;;;;22.23;4.83;;;;;;;14.79;59.55;102289.63;5164993;28;20466;-78
2023/05/29 06:59:01;;;;;;;15.10;3.03;;;;;;;15.34;58.98;102334.16;5149353;28;20030;-78
2023/05/29 07:01:33;;;;;;;18.20;4.97;;;;;;;15.54;57.55;102329.53;5150645;28;20356;-80
2023/05/29 07:04:04;;;;;;;13.80;4.10;;;;;;;15.61;57.64;102325.59;5166606;28;20062;-80
2023/05/29 07:06:41;;;;;;;15.60;3.80;;;;;;;15.64;57.25;102295.53;5165781;28;20059;-80
2023/05/29 07:09:13;;;;;;;16.93;4.17;;;;;;;15.93;56.60;102319.38;5150570;28;20031;-80
2023/05/29 07:11:45;;;;;;;16.13;3.80;;;;;;;16.03;54.96;102299.41;5166178;28;20441;-79
2023/05/29 07:14:19;;;;;;;11.57;3.77;;;;;;;16.47;54.01;102322.38;5150208;28;20090;-80
2023/05/29 07:16:51;;;;;;;12.37;3.47;;;;;;;16.57;51.77;102312.94;5152228;29;20110;-81
2023/05/29 07:19:22;;;;;;;15.43;3.60;;;;;;;16.89;50.49;102307.44;5150865;28;20046;-81
2023/05/29 07:21:56;;;;;;;16.13;3.97;;;;;;;17.51;50.19;102325.56;5154143;28;20023;-81
2023/05/29 07:24:27;;;;;;;22.80;4.45;;;;;;;18.28;47.99;102344.38;5150647;28;20026;-81
2023/05/29 07:26:59;;;;;;;13.60;3.73;;;;;;;18.72;46.59;102340.41;5150299;28;20403;-80
2023/05/29 07:29:30;;;;;;;14.23;3.80;;;;;;;18.93;45.53;102309.78;5150165;28;20039;-81
2023/05/29 07:32:02;;;;;;;12.43;3.57;;;;;;;19.45;44.28;102326.38;5148263;28;20034;-79
2023/05/29 07:34:33;;;;;;;17.50;4.60;;;;;;;19.90;43.18;102313.31;5148593;28;20108;-79
2023/05/29 07:37:06;;;;;;;14.77;4.60;;;;;;;20.24;41.63;102316.06;5147831;28;20046;-80
2023/05/29 07:39:37;;;;;;;21.00;3.50;;;;;;;20.68;40.26;102337.44;5150647;28;20015;-79
2023/05/29 07:42:11;;;;;;;15.50;3.43;;;;;;;21.21;39.70;102332.41;5140695;28;20042;-79
2023/05/29 07:44:43;;;;;;;10.65;3.10;;;;;;;21.53;39.21;102370.69;5128772;28;20028;-78
2023/05/29 07:47:17;;;;;;;14.20;3.37;;;;;;;21.49;38.48;102332.78;5148994;28;20030;-80
2023/05/29 07:49:48;;;;;;;18.48;4.10;;;;;;;21.85;37.94;102321.00;5148918;28;21166;-79
2023/05/29 07:52:23;;;;;;;12.83;3.33;;;;;;;22.21;36.34;102369.50;5148393;28;20031;-80
2023/05/29 07:55:03;;;;;;;12.48;4.38;;;;;;;23.09;37.28;102373.47;5169063;28;20030;-81
2023/05/29 07:57:37;;;;;;;12.27;3.25;;;;;;;23.12;35.22;102329.63;5156796;28;20051;-80
2023/05/29 08:00:13;;;;;;;9.48;3.47;;;;;;;23.26;35.16;102383.63;5150770;28;20055;-81
2023/05/29 08:02:44;;;;;;;8.60;3.50;;;;;;;23.30;34.09;102350.31;5150544;28;20037;-79
2023/05/29 08:05:22;;;;;;;13.93;4.15;;;;;;;23.17;33.74;102340.72;5149635;28;20019;-80
2023/05/29 08:07:53;;;;;;;12.20;3.75;;;;;;;23.38;33.65;102349.59;5147399;28;20049;-80
2023/05/29 08:10:25;;;;;;;11.05;3.83;;;;;;;23.62;33.38;102338.50;5157221;28;20050;-79
2023/05/29 08:13:01;;;;;;;11.38;3.40;;;;;;;23.94;33.58;102357.88;5168972;28;20064;-80
2023/05/29 08:15:35;;;;;;;9.85;3.13;;;;;;;24.29;32.09;102363.56;5166999;28;20026;-79
2023/05/29 08:18:19;;;;;;;9.80;2.35;;;;;;;24.61;32.48;102356.94;5157862;28;20034;-81
2023/05/29 08:20:52;;;;;;;11.38;3.35;;;;;;;24.86;31.58;102377.81;5146202;28;20191;-79
2023/05/29 08:23:23;;;;;;;13.48;4.20;;;;;;;24.86;31.45;102340.31;5149816;28;20076;-81
2023/05/29 08:25:57;;;;;;;9.38;3.13;;;;;;;24.86;31.15;102337.63;5150975;28;20023;-80
2023/05/29 08:28:31;;;;;;;;;;;;;;;27.00;30.80;102396.59;5149060;28;20099;-79
2023/05/29 08:31:02;;;;;;;10.67;3.27;;;;;;;25.45;30.07;102347.09;5149657;28;20001;-79
2023/05/29 08:33:36;;;;;;;9.18;2.72;;;;;;;25.83;30.41;102382.59;5148816;28;20106;-78
2023/05/29 08:36:08;;;;;;;12.15;3.90;;;;;;;25.12;30.89;102364.56;5148772;28;20035;-78
2023/05/29 08:38:40;;;;;;;13.02;3.60;;;;;;;25.56;29.79;102354.88;5149041;28;20467;-79
2023/05/29 08:41:22;;;;;;;12.95;3.35;;;;;;;25.89;30.13;102364.19;5149492;28;20038;-79
2023/05/29 08:43:54;;;;;;;13.70;3.95;;;;;;;25.80;29.68;102376.72;5148697;28;20026;-79
2023/05/29 08:46:26;;;;;;;14.90;3.60;;;;;;;26.16;29.33;102403.47;5151081;28;20076;-80
2023/05/29 08:49:02;;;;;;;10.30;3.60;;;;;;;26.27;29.88;102377.34;5167450;28;20667;-79
2023/05/29 08:51:39;;;;;;;13.90;3.13;;;;;;;26.14;29.68;102361.66;5167725;28;20046;-79
2023/05/29 08:54:13;;;;;;;10.13;3.50;;;;;;;26.55;29.41;102404.88;5152155;28;20034;-80
2023/05/29 08:56:44;;;;;;;11.68;3.25;;;;;;;27.05;28.66;102410.41;5158130;28;20109;-80
2023/05/29 08:59:17;;;;;;;10.60;3.50;;;;;;;26.34;29.19;102360.47;5149638;28;20102;-80
2023/05/29 09:01:49;;;;;;;10.13;3.65;;;;;;;27.15;28.52;102372.66;5148832;28;20483;-79
2023/05/29 09:04:21;;;;;;;11.48;3.85;;;;;;;26.38;28.67;102382.47;5149967;28;20058;-81
2023/05/29 09:06:54;;;;;;;10.40;3.40;;;;;;;26.82;28.56;102388.69;5150260;28;20045;-81
2023/05/29 09:09:29;;;;;;;;;;;;;;;29.21;27.75;102408.34;5148208;28;20059;-80
2023/05/29 09:12:00;;;;;;;10.68;4.22;;;;;;;27.27;27.69;102383.91;5147187;28;20314;-79
2023/05/29 09:14:34;;;;;;;14.52;2.97;;;;;;;27.54;27.37;102414.19;5165260;28;20038;-79
2023/05/29 09:17:06;;;;;;;12.40;3.15;;;;;;;27.65;27.21;102412.16;5168470;28;20033;-80
2023/05/29 09:19:40;;;;;;;16.67;3.85;;;;;;;28.19;26.42;102405.38;5168478;28;20031;-80
2023/05/29 09:22:15;;;;;;;;;;;;;;;29.93;27.07;102421.59;5168675;28;20018;-80
2023/05/29 09:24:50;;;;;;;9.60;3.47;;;;;;;28.71;25.47;102422.06;5165777;28;19914;-84
2023/05/29 09:27:22;;;;;;;10.63;2.80;;;;;;;28.23;25.62;102387.03;5222937;28;20184;-81
2023/05/29 09:29:53;;;;;;;10.00;3.20;;;;;;;28.15;26.05;102388.72;5167133;28;20820;-82
2023/05/29 09:32:33;;;;;;;9.20;3.53;;;;;;;28.57;26.38;102401.25;5166984;28;20050;-83
2023/05/29 09:35:09;;;;;;;11.63;3.55;;;;;;;28.70;25.78;102385.34;5170655;28;20035;-82
2023/05/29 09:37:42;;;;;;;9.90;2.88;;;;;;;28.49;25.03;102375.19;5165823;28;20105;-83
2023/05/29 09:40:14;;;;;;;9.52;3.05;;;;;;;28.59;25.41;102356.13;5169507;28;20076;-83
2023/05/29 09:42:48;;;;;;;7.97;3.03;;;;;;;28.44;25.68;102373.03;5168758;28;20023;-80
2023/05/29 09:45:21;;;;;;;10.88;2.85;;;;;;;28.83;25.17;102354.28;5166485;28;20106;-82
2023/05/29 09:47:52;;;;;;;11.18;3.35;;;;;;;28.98;24.74;102390.28;5151826;28;20066;-81
2023/05/29 09:50:28;;;;;;;11.57;3.63;;;;;;;29.67;25.35;102408.50;5150468;28;20374;-81
2023/05/29 09:53:01;;;;;;;10.23;4.03;;;;;;;29.49;24.27;102398.00;5152311;28;20033;-82
2023/05/29 09:55:35;;;;;;;10.18;3.30;;;;;;;29.62;24.49;102390.16;5153203;28;20022;-82
2023/05/29 09:58:08;;;;;;;9.20;2.70;;;;;;;28.95;24.97;102379.84;5173329;28;20027;-82
2023/05/29 10:00:42;;;;;;;10.95;3.13;;;;;;;29.04;25.05;102386.03;5171963;28;20031;-83
2023/05/29 10:03:14;;;;;;;13.73;3.92;;;;;;;28.70;25.20;102408.75;5173506;28;20113;-82
2023/05/29 10:05:50;;;;;;;10.25;3.20;;;;;;;29.55;24.98;102406.19;5154522;28;20122;-82
2023/05/29 10:08:21;;;;;;;13.60;3.65;;;;;;;29.06;25.61;102359.72;5156184;28;20031;-82
2023/05/29 10:10:59;;;;;;;10.20;3.00;;;;;;;29.97;24.48;102365.31;5172682;28;20131;-83
2023/05/29 10:13:37;;;;;;;11.57;3.60;;;;;;;30.25;23.86;102382.78;5156056;28;21014;-82
2023/05/29 10:16:15;;;;;;;12.95;3.75;;;;;;;30.04;24.12;102390.56;5173676;28;20057;-83
2023/05/29 10:18:54;;;;;;;11.30;3.40;;;;;;;30.64;23.68;102400.53;5173800;28;20038;-83
2023/05/29 10:21:27;;;;;;;6.97;2.95;;;;;;;29.60;23.94;102365.19;5156013;28;20604;-82
2023/05/29 10:24:04;;;;;;;10.15;2.92;;;;;;;29.95;24.79;102400.63;5155192;28;20038;-82
2023/05/29 10:26:41;;;;;;;12.73;3.60;;;;;;;29.68;24.33;102400.22;5173598;28;20039;-82
2023/05/29 10:29:19;;;;;;;11.75;3.20;;;;;;;30.19;23.88;102401.41;5155382;28;20034;-82
2023/05/29 10:32:12;;;;;;;14.73;3.67;;;;;;;30.48;24.90;102401.56;5156000;28;20035;-83
2023/05/29 10:35:08;;;;;;;8.93;2.92;;;;;;;29.97;23.45;102381.53;5173267;28;20471;-80
2023/05/29 10:37:43;;;;;;;15.15;3.00;;;;;;;30.32;24.02;102394.50;5147221;28;20479;-80
2023/05/29 10:40:14;;;;;;;10.23;3.20;;;;;;;29.53;23.53;102339.94;5188214;28;20013;-80
2023/05/29 10:42:49;;;;;;;7.80;3.28;;;;;;;29.61;24.01;102372.28;5257952;28;20379;-80
2023/05/29 10:45:29;;;;;;;10.98;3.53;;;;;;;30.77;23.84;102380.91;5277044;28;20032;-80
2023/05/29 10:48:09;;;;;;;7.43;3.10;;;;;;;30.53;23.93;102376.69;5277924;28;20027;-80
2023/05/29 10:50:42;;;;;;;10.10;2.95;;;;;;;29.75;24.08;102372.47;5257943;28;20037;-80
2023/05/29 10:53:17;;;;;;;9.10;3.00;;;;;;;29.98;23.81;102371.56;5258646;28;20042;-80
2023/05/29 10:55:50;;;;;;;12.30;3.40;;;;;;;29.70;24.56;102387.41;5258216;28;20039;-80
2023/05/29 10:58:25;;;;;;;;;;;;;;;31.85;23.37;102388.34;5277324;28;20115;-81
2023/05/29 11:00:58;;;;;;;9.15;3.00;;;;;;;29.71;23.40;102351.25;5258206;28;19934;-81
2023/05/29 11:03:31;;;;;;;8.50;2.63;;;;;;;29.35;23.99;102341.97;5258515;28;20040;-80
2023/05/29 11:06:16;;;;;;;7.65;2.85;;;;;;;29.11;24.62;102353.78;5274421;28;20145;-80
2023/05/29 11:08:54;;;;;;;10.20;3.35;;;;;;;29.30;24.64;102365.09;5276462;28;20048;-80
2023/05/29 11:11:32;;;;;;;10.48;3.03;;;;;;;29.89;24.72;102368.97;5257904;28;20072;-80
2023/05/29 11:14:06;;;;;;;9.70;3.38;;;;;;;29.62;24.01;102360.47;5200394;28;20111;-80
2023/05/29 11:16:38;;;;;;;10.63;3.42;;;;;;;29.36;24.82;102369.75;5168712;28;20659;-80
2023/05/29 11:19:10;;;;;;;7.93;3.80;;;;;;;28.92;24.34;102347.81;5171062;28;20106;-80
2023/05/29 11:21:49;;;;;;;9.93;4.20;;;;;;;28.53;25.38;102348.72;5169139;28;20019;-80
2023/05/29 11:24:28;;;;;;;10.15;3.60;;;;;;;29.21;25.09;102318.47;5170518;28;20474;-80
2023/05/29 11:27:05;;;;;;;9.82;2.95;;;;;;;28.27;26.05;102367.69;5168964;28;20027;-80
2023/05/29 11:29:36;;;;;;;11.88;3.58;;;;;;;28.07;25.75;102337.59;5169911;28;20023;-80
2023/05/29 11:32:13;;;;;;;9.57;3.58;;;;;;;29.21;25.36;102345.44;5170518;28;20056;-80
2023/05/29 11:34:47;;;;;;;13.23;4.32;;;;;;;28.46;25.56;102321.66;5169628;28;20628;-80
2023/05/29 11:37:19;;;;;;;9.95;3.63;;;;;;;28.19;26.02;102326.47;5170289;28;20096;-80
2023/05/29 11:39:51;;;;;;;9.00;3.45;;;;;;;28.45;25.82;102344.22;5170525;28;20023;-80
2023/05/29 11:42:22;;;;;;;11.77;2.92;;;;;;;28.12;26.38;102323.63;5170987;28;20418;-80
2023/05/29 11:44:54;;;;;;;8.00;3.20;;;;;;;28.25;26.76;102340.06;5171864;28;20031;-80
2023/05/29 11:47:25;;;;;;;9.52;3.50;;;;;;;28.16;27.05;102354.56;5170418;28;20035;-80
2023/05/29 11:49:56;;;;;;;11.20;3.63;;;;;;;28.47;25.96;102371.81;5152379;28;20084;-80